Time;durP1;ratioP1;P1;durP2;ratioP2;P2;SDS_P1;SDS_P2;PMS_P1;PMS_P2;Temp;Humidity;BMP_temperature;BMP_pressure;BME280_temperature;BME280_humidity;BME280_pressure;Samples;Min_cycle;Max_cycle;Signal;HPM_P1;HPM_P2
2021/11/05 00:14:19;;;;;;;2.00;1.80;;;;;;;7.03;100.00;99624.50;20976249;27;20611;-62
2021/11/05 00:34:20;;;;;;;2.30;2.07;;;;;;;7.88;100.00;99624.44;20976161;27;20568;-67
2021/11/05 01:04:20;;;;;;;1.80;1.70;;;;;;;8.21;100.00;99627.53;21043967;27;20644;-72
2021/11/05 01:24:22;;;;;;;1.83;1.70;;;;;;;8.57;100.00;99650.06;20965906;27;20629;-66
2021/11/05 01:34:26;;;;;;;2.80;1.70;;;;;;;8.71;100.00;99668.56;20960586;27;20222;-75
2021/11/05 01:44:31;;;;;;;1.60;1.50;;;;;;;8.83;100.00;99662.44;21045694;27;20250;-65
2021/11/05 02:24:30;;;;;;;1.50;1.40;;;;;;;9.09;100.00;99699.72;20922929;27;20660;-71
2021/11/05 02:34:34;;;;;;;2.27;1.50;;;;;;;9.09;100.00;99697.94;20897099;28;20227;-61
2021/11/05 02:44:39;;;;;;;1.53;1.43;;;;;;;9.11;100.00;99708.47;20904467;28;21226;-65
2021/11/05 02:54:45;;;;;;;1.60;1.30;;;;;;;9.09;100.00;99707.72;20847703;28;20527;-66
2021/11/05 03:04:50;;;;;;;1.57;1.47;;;;;;;9.10;100.00;99717.41;20822188;28;20220;-68
2021/11/05 03:14:54;;;;;;;1.93;1.27;;;;;;;9.11;100.00;99735.09;20833137;28;20249;-59
2021/11/05 03:24:59;;;;;;;1.70;1.60;;;;;;;9.09;100.00;99752.97;20812892;28;20305;-68
2021/11/05 03:45:01;;;;;;;1.80;1.70;;;;;;;9.12;100.00;99752.75;21025120;27;20639;-69
2021/11/05 03:55:05;;;;;;;1.60;1.50;;;;;;;9.11;100.00;99751.06;21044781;28;20302;-57
2021/11/05 04:05:10;;;;;;;1.50;1.30;;;;;;;9.16;100.00;99776.44;21027254;28;20233;-62
2021/11/05 04:15:14;;;;;;;2.20;2.00;;;;;;;9.19;100.00;99786.00;21038936;28;20264;-67
2021/11/05 04:25:19;;;;;;;2.23;2.03;;;;;;;9.22;100.00;99801.75;21032806;28;20218;-57
2021/11/05 04:35:23;;;;;;;1.67;1.57;;;;;;;9.24;100.00;99821.16;21030452;28;20230;-59
2021/11/05 04:55:25;;;;;;;1.73;1.63;;;;;;;9.25;100.00;99846.81;21005418;27;20591;-66
2021/11/05 05:05:29;;;;;;;2.30;2.10;;;;;;;9.22;100.00;99873.63;21045025;27;20306;-68
2021/11/05 05:15:35;;;;;;;1.90;1.80;;;;;;;9.20;100.00;99878.22;21022326;27;20714;-61
2021/11/05 05:25:40;;;;;;;2.30;2.10;;;;;;;9.21;100.00;99894.09;20991375;27;20236;-58
2021/11/05 05:35:45;;;;;;;2.50;2.30;;;;;;;9.22;100.00;99913.56;20948801;27;20233;-70
2021/11/05 05:45:48;;;;;;;2.40;2.20;;;;;;;9.21;100.00;99935.81;20966969;27;21016;-66
2021/11/05 06:05:51;;;;;;;3.80;2.30;;;;;;;9.22;100.00;99934.88;20815399;27;20715;-59
2021/11/05 06:36:23;;;;;;;3.23;2.90;;;;;;;9.61;100.00;99990.88;25742586;22;20566;-56
2021/11/05 06:46:27;;;;;;;3.30;3.00;;;;;;;9.46;100.00;100012.31;25699976;22;20252;-57
2021/11/05 06:56:32;;;;;;;3.27;2.77;;;;;;;9.48;100.00;100026.38;25676955;22;20215;-56
2021/11/05 07:16:33;;;;;;;3.40;3.10;;;;;;;9.31;100.00;100056.75;21012602;27;20598;-59
2021/11/05 07:36:36;;;;;;;3.73;3.30;;;;;;;9.51;100.00;100085.66;21120967;27;20608;-71
2021/11/05 07:46:44;;;;;;;3.80;3.40;;;;;;;9.27;100.00;100084.53;21105044;27;20312;-64
2021/11/05 07:56:52;;;;;;;3.70;3.40;;;;;;;9.30;100.00;100098.50;21080744;27;20233;-71
2021/11/05 08:06:58;;;;;;;3.20;2.90;;;;;;;10.21;100.00;100097.09;21112238;27;20851;-60
2021/11/05 08:17:04;;;;;;;3.03;2.83;;;;;;;10.78;100.00;100120.81;21188736;27;20231;-68
2021/11/05 08:27:07;;;;;;;3.30;3.00;;;;;;;10.86;100.00;100126.50;21164421;27;20433;-72
2021/11/05 08:37:13;;;;;;;6.17;3.47;;;;;;;10.91;95.59;100124.34;21180634;27;20274;-72
2021/11/05 08:47:19;;;;;;;3.43;3.10;;;;;;;11.12;100.00;100170.91;21115654;27;20238;-65
2021/11/05 09:07:25;;;;;;;3.77;3.07;;;;;;;11.20;96.01;100191.78;20939669;27;20640;-71
2021/11/05 09:17:28;;;;;;;3.80;3.40;;;;;;;11.24;97.92;100206.63;20929742;28;20237;-74
2021/11/05 09:27:34;;;;;;;4.97;3.10;;;;;;;10.91;96.23;100193.75;20931837;28;20246;-74
2021/11/05 09:37:39;;;;;;;3.90;3.50;;;;;;;10.56;98.93;100221.94;20921839;28;20236;-65
2021/11/05 09:47:45;;;;;;;4.57;4.07;;;;;;;10.34;100.00;100251.84;20917684;28;20230;-67
2021/11/05 09:57:50;;;;;;;3.63;3.33;;;;;;;10.23;100.00;100265.84;20896466;28;20733;-70
2021/11/05 10:07:59;;;;;;;5.37;3.70;;;;;;;10.18;100.00;100288.38;20934504;28;20316;-69
2021/11/05 10:18:14;;;;;;;3.50;3.20;;;;;;;10.19;100.00;100323.00;20605264;28;20234;-65
2021/11/05 10:28:21;;;;;;;3.60;3.30;;;;;;;10.27;100.00;100336.69;20617894;28;20612;-69
2021/11/05 10:38:25;;;;;;;3.80;3.50;;;;;;;10.49;100.00;100346.91;20605243;28;20225;-67
2021/11/05 10:48:31;;;;;;;21.83;3.00;;;;;;;10.14;100.00;100325.09;20663569;28;20677;-67
2021/11/05 10:58:37;;;;;;;2.33;1.63;;;;;;;10.48;100.00;100361.19;20868334;28;20318;-65
2021/11/05 11:08:49;;;;;;;2.33;1.47;;;;;;;10.78;100.00;100377.91;20859816;28;21012;-56
2021/11/05 11:18:56;;;;;;;1.50;1.30;;;;;;;10.33;100.00;100384.34;20874678;28;20227;-57
2021/11/05 11:29:02;;;;;;;1.70;1.60;;;;;;;10.37;100.00;100361.00;20850186;28;20262;-66
2021/11/05 11:39:07;;;;;;;1.37;1.27;;;;;;;10.27;100.00;100392.72;20952969;28;20250;-61
2021/11/05 11:49:12;;;;;;;1.83;1.20;;;;;;;10.55;100.00;100399.00;20933254;28;20251;-72
2021/11/05 11:59:17;;;;;;;0.80;0.80;;;;;;;10.91;100.00;100402.00;20939882;28;20782;-71
2021/11/05 12:19:36;;;;;;;2.63;1.40;;;;;;;10.29;100.00;100425.47;20942004;27;20605;-74
2021/11/05 12:29:58;;;;;;;11.93;1.50;;;;;;;10.01;100.00;100430.75;21010299;27;20258;-60
2021/11/05 12:40:30;;;;;;;2.27;1.00;;;;;;;9.98;100.00;100453.13;20917057;28;20234;-63
2021/11/05 12:50:34;;;;;;;2.60;1.20;;;;;;;9.64;100.00;100427.63;21013567;27;20241;-67
2021/11/05 13:00:42;;;;;;;1.57;1.27;;;;;;;9.75;100.00;100467.81;21001497;27;20233;-66
2021/11/05 13:10:45;;;;;;;1.90;1.80;;;;;;;9.74;100.00;100470.56;21018042;27;20598;-63
2021/11/05 13:20:51;;;;;;;1.73;1.50;;;;;;;9.72;100.00;100491.97;20996262;27;20695;-72
2021/11/05 13:30:56;;;;;;;2.00;1.90;;;;;;;9.72;100.00;100499.97;20958672;28;20256;-66
2021/11/05 13:41:03;;;;;;;3.73;1.90;;;;;;;9.64;100.00;100525.34;20943905;28;20229;-65
2021/11/05 13:51:08;;;;;;;2.20;2.00;;;;;;;9.60;100.00;100513.13;20876422;28;20224;-59
2021/11/05 14:01:20;;;;;;;2.47;1.70;;;;;;;9.63;100.00;100521.81;20864365;28;20235;-60
2021/11/05 14:31:20;;;;;;;2.20;2.00;;;;;;;9.32;100.00;100553.78;21063392;27;1347877;-58
2021/11/05 14:41:30;;;;;;;2.40;2.20;;;;;;;9.24;100.00;100571.97;21129372;28;20304;-68
2021/11/05 14:51:35;;;;;;;3.10;2.17;;;;;;;9.22;100.00;100573.88;21106378;28;20248;-62
2021/11/05 15:01:39;;;;;;;3.83;2.73;;;;;;;9.29;100.00;100584.13;21127684;28;20695;-59
2021/11/05 15:11:46;;;;;;;3.70;3.00;;;;;;;9.29;100.00;100585.91;21107318;28;21067;-60
2021/11/05 15:21:53;;;;;;;2.90;2.70;;;;;;;9.04;100.00;100618.34;21121382;28;20230;-59
2021/11/05 15:31:58;;;;;;;2.97;2.77;;;;;;;8.83;100.00;100636.25;21108100;28;20746;-59
2021/11/05 15:52:00;;;;;;;3.23;2.50;;;;;;;8.21;100.00;100664.19;21031247;27;20575;-58
2021/11/05 16:02:04;;;;;;;2.87;2.63;;;;;;;8.16;100.00;100676.88;21024830;28;20271;-65
2021/11/05 16:12:10;;;;;;;4.37;3.97;;;;;;;8.21;100.00;100682.81;21043059;28;20221;-71
2021/11/05 16:32:11;;;;;;;4.60;4.20;;;;;;;8.23;100.00;100710.19;21213258;27;20598;-59
2021/11/05 16:42:14;;;;;;;5.10;4.60;;;;;;;8.28;100.00;100721.47;21191496;27;20231;-63
2021/11/05 17:02:19;;;;;;;6.20;5.60;;;;;;;8.37;100.00;100728.16;21139323;27;21256;-62
2021/11/05 17:12:23;;;;;;;6.70;6.10;;;;;;;8.38;100.00;100737.00;21117917;28;20252;-62
2021/11/05 17:32:26;;;;;;;5.80;5.30;;;;;;;8.23;100.00;100766.03;21045290;27;21093;-58
2021/11/05 18:23:03;;;;;;;6.07;5.57;;;;;;;8.17;100.00;100795.56;21012439;27;20669;-59
2021/11/05 18:33:07;;;;;;;7.43;6.63;;;;;;;8.10;100.00;100794.09;21004696;28;20627;-65
2021/11/05 18:43:15;;;;;;;7.43;6.60;;;;;;;8.05;100.00;100811.22;20994457;28;20236;-58
2021/11/05 18:53:18;;;;;;;7.20;6.50;;;;;;;8.01;100.00;100810.50;20961967;28;20301;-71
2021/11/05 19:03:25;;;;;;;8.50;7.60;;;;;;;7.90;100.00;100834.91;20996920;28;21122;-63
2021/11/05 19:13:30;;;;;;;8.00;7.30;;;;;;;7.83;100.00;100844.09;20984783;28;20226;-70
2021/11/05 19:23:36;;;;;;;9.00;8.10;;;;;;;7.70;100.00;100871.25;20968940;28;20221;-63
2021/11/05 19:33:41;;;;;;;9.13;8.23;;;;;;;7.59;100.00;100867.28;20925397;28;20284;-70
2021/11/05 19:44:02;;;;;;;9.43;8.57;;;;;;;7.66;100.00;100874.97;20920582;28;20248;-67
2021/11/05 19:54:06;;;;;;;10.30;9.40;;;;;;;7.79;100.00;100884.13;20934346;28;20264;-74
2021/11/05 20:04:12;;;;;;;11.37;10.27;;;;;;;7.87;100.00;100892.63;20940068;28;21017;-77
2021/11/05 20:24:16;;;;;;;11.73;10.67;;;;;;;7.93;100.00;100913.63;21057993;27;20585;-57
2021/11/05 20:34:26;;;;;;;15.67;14.27;;;;;;;7.88;100.00;100931.56;21042958;27;20243;-73
2021/11/05 20:44:32;;;;;;;14.73;13.33;;;;;;;7.91;100.00;100931.44;21050865;27;20232;-60
2021/11/05 20:54:38;;;;;;;16.07;14.57;;;;;;;7.93;100.00;100940.19;21054426;27;20233;-57
2021/11/05 21:04:46;;;;;;;17.13;15.43;;;;;;;7.85;100.00;100945.81;20976104;28;20241;-58
2021/11/05 21:14:50;;;;;;;16.90;15.40;;;;;;;7.87;100.00;100938.66;21048987;27;20325;-61
2021/11/05 21:34:53;;;;;;;15.80;14.30;;;;;;;7.81;100.00;100954.00;20903082;28;20569;-83
2021/11/05 21:44:57;;;;;;;15.10;13.70;;;;;;;7.74;100.00;100960.50;20876563;28;20222;-82
2021/11/05 21:55:05;;;;;;;14.20;12.80;;;;;;;7.64;100.00;100954.72;20891748;28;20633;-81
2021/11/05 22:05:10;;;;;;;13.53;12.33;;;;;;;7.70;100.00;100969.56;20883567;28;20290;-81
2021/11/05 22:15:16;;;;;;;13.90;12.57;;;;;;;7.62;100.00;100968.97;20852670;28;20310;-80
2021/11/05 22:35:19;;;;;;;12.90;11.60;;;;;;;7.64;100.00;100983.94;21064415;27;1698554;-61
2021/11/05 22:55:22;;;;;;;10.60;9.60;;;;;;;7.59;100.00;100984.16;20875578;28;20571;-65
2021/11/05 23:05:26;;;;;;;10.40;9.30;;;;;;;7.53;100.00;100996.78;20878878;28;20317;-62
2021/11/05 23:15:41;;;;;;;9.30;8.40;;;;;;;7.58;100.00;101008.09;20843683;28;20256;-61
2021/11/05 23:25:45;;;;;;;8.83;8.03;;;;;;;7.63;100.00;101016.72;20871463;28;20260;-61
2021/11/05 23:35:51;;;;;;;9.63;8.63;;;;;;;7.69;100.00;101020.94;20867763;28;20234;-61
2021/11/05 23:45:54;;;;;;;9.60;8.70;;;;;;;7.71;100.00;101046.53;20859813;28;20644;-62
